Time;durP1;ratioP1;P1;durP2;ratioP2;P2;SDS_P1;SDS_P2;PMS_P1;PMS_P2;Temp;Humidity;BMP_temperature;BMP_pressure;BME280_temperature;BME280_humidity;BME280_pressure;Samples;Min_cycle;Max_cycle;Signal;HPM_P1;HPM_P2
2021/09/16 00:00:17;;;;;;;;;9.00;8.00;;;;;20.07;64.47;101358.19;4894373;28;46179;-57
2021/09/16 00:02:43;;;;;;;;;8.00;5.25;;;;;20.02;64.93;101358.59;4898270;28;45441;-58
2021/09/16 00:05:10;;;;;;;;;7.25;7.25;;;;;19.98;64.65;101362.50;4899101;29;45529;-59
2021/09/16 00:07:36;;;;;;;;;8.25;7.75;;;;;19.96;64.67;101372.50;4895416;29;45340;-58
2021/09/16 00:10:02;;;;;;;;;9.00;8.00;;;;;19.96;65.27;101367.16;4895422;29;45647;-52
2021/09/16 00:12:28;;;;;;;;;7.75;6.00;;;;;19.95;64.70;101378.00;4896980;29;45310;-57
2021/09/16 00:14:53;;;;;;;;;7.00;7.00;;;;;19.94;65.32;101379.81;4896789;29;45246;-57
2021/09/16 00:17:19;;;;;;;;;9.25;8.00;;;;;19.94;65.01;101369.13;4896144;29;45178;-57
2021/09/16 00:19:46;;;;;;;;;9.50;7.25;;;;;19.92;65.20;101368.44;4895837;29;46145;-56
2021/09/16 00:22:12;;;;;;;;;9.00;8.00;;;;;19.89;65.56;101375.84;4898898;28;45493;-56
2021/09/16 00:24:37;;;;;;;;;9.75;8.75;;;;;19.88;65.38;101374.16;4896724;29;45539;-58
2021/09/16 00:27:03;;;;;;;;;9.75;8.75;;;;;19.85;65.52;101369.94;4896133;29;45477;-57
2021/09/16 00:29:28;;;;;;;;;10.25;8.00;;;;;19.87;65.27;101373.31;4895574;29;45474;-58
2021/09/16 00:31:54;;;;;;;;;7.00;7.00;;;;;19.89;65.57;101373.19;4896814;29;45745;-58
2021/09/16 00:34:19;;;;;;;;;7.25;7.25;;;;;19.85;65.96;101371.78;4900045;29;45399;-58
2021/09/16 00:36:45;;;;;;;;;9.25;8.25;;;;;19.82;65.76;101385.41;4895382;29;45590;-58
2021/09/16 00:39:10;;;;;;;;;11.50;9.25;;;;;19.79;65.52;101379.34;4886551;29;45460;-58
2021/09/16 00:41:36;;;;;;;;;7.75;7.50;;;;;19.77;65.72;101384.00;4895652;29;45453;-58
2021/09/16 00:44:02;;;;;;;;;8.25;8.25;;;;;19.75;66.03;101382.44;4896930;29;45464;-58
2021/09/16 00:46:27;;;;;;;;;12.25;7.00;;;;;19.71;65.86;101389.88;4896588;29;45378;-58
2021/09/16 00:48:53;;;;;;;;;7.00;7.00;;;;;19.70;66.04;101390.84;4898603;29;46061;-58
2021/09/16 00:51:19;;;;;;;;;11.50;9.75;;;;;19.69;65.90;101391.84;4897160;29;45805;-58
2021/09/16 00:53:46;;;;;;;;;7.50;7.50;;;;;19.65;66.11;101390.41;4897223;29;45363;-58
2021/09/16 00:56:12;;;;;;;;;10.50;8.00;;;;;19.64;66.30;101398.56;4899949;29;46682;-58
2021/09/16 00:58:40;;;;;;;;;9.00;8.00;;;;;19.62;66.31;101401.38;4894414;29;46427;-59
2021/09/16 01:01:07;;;;;;;;;9.50;8.75;;;;;19.62;66.25;101397.84;4896638;29;45459;-59
2021/09/16 01:03:33;;;;;;;;;9.75;9.75;;;;;19.60;66.48;101395.31;4898288;29;45276;-58
2021/09/16 01:05:59;;;;;;;;;11.00;9.25;;;;;19.61;66.76;101398.84;4897689;29;45441;-58
2021/09/16 01:08:26;;;;;;;;;11.25;8.25;;;;;19.62;66.83;101400.53;4897123;29;45328;-59
2021/09/16 01:10:52;;;;;;;;;7.50;7.25;;;;;19.61;66.50;101401.50;4897181;29;45300;-58
2021/09/16 01:13:18;;;;;;;;;9.00;9.00;;;;;19.58;66.59;101405.25;4897337;29;45463;-59
2021/09/16 01:15:45;;;;;;;;;8.25;8.00;;;;;19.54;66.55;101401.16;4900263;29;45390;-58
2021/09/16 01:18:13;;;;;;;;;11.75;8.25;;;;;19.51;67.14;101404.06;4884247;29;45626;-58
2021/09/16 01:20:39;;;;;;;;;10.00;9.00;;;;;19.50;67.10;101408.56;4896966;29;45258;-58
2021/09/16 01:23:05;;;;;;;;;10.50;9.75;;;;;19.50;67.13;101410.41;4898567;29;45416;-58
2021/09/16 01:25:32;;;;;;;;;9.00;9.00;;;;;19.49;66.87;101414.06;4897272;29;45467;-58
2021/09/16 01:28:01;;;;;;;;;7.75;7.50;;;;;19.48;67.23;101413.22;4897391;29;46679;-59
2021/09/16 01:30:28;;;;;;;;;11.50;11.00;;;;;19.49;66.81;101416.72;4897293;29;45403;-58
2021/09/16 01:32:55;;;;;;;;;13.00;10.50;;;;;19.48;66.71;101409.69;4897242;29;45320;-58
2021/09/16 01:35:22;;;;;;;;;11.25;10.50;;;;;19.45;67.26;101418.81;4897131;29;45326;-58
2021/09/16 01:37:48;;;;;;;;;12.00;10.00;;;;;19.43;67.50;101423.47;4896904;29;45314;-58
2021/09/16 01:40:14;;;;;;;;;11.25;9.75;;;;;19.41;67.05;101422.72;4896515;29;45389;-58
2021/09/16 01:42:41;;;;;;;;;9.00;9.00;;;;;19.41;66.88;101428.06;4896799;29;45360;-58
2021/09/16 01:45:20;;;;;;;;;11.00;9.75;;;;;19.42;67.00;101424.41;4897742;29;45303;-58
2021/09/16 01:47:47;;;;;;;;;11.75;9.25;;;;;19.44;67.14;101425.16;4896710;29;45896;-58
2021/09/16 01:50:14;;;;;;;;;12.50;10.50;;;;;19.42;67.17;101431.59;4895539;29;45253;-58
2021/09/16 01:52:40;;;;;;;;;15.25;10.50;;;;;19.40;67.37;101422.84;4898403;29;45309;-58
2021/09/16 01:55:07;;;;;;;;;9.50;8.75;;;;;19.41;67.71;101430.75;4897740;29;45507;-58
2021/09/16 01:57:33;;;;;;;;;13.00;10.25;;;;;19.43;67.52;101434.16;4896564;29;45470;-58
2021/09/16 01:59:59;;;;;;;;;12.00;9.50;;;;;19.43;67.58;101428.81;4885418;29;45303;-58
2021/09/16 02:02:25;;;;;;;;;12.00;11.00;;;;;19.41;67.17;101427.22;4896208;29;45223;-58
2021/09/16 02:04:51;;;;;;;;;10.50;9.50;;;;;19.38;67.51;101427.50;4898739;29;45393;-58
2021/09/16 02:07:16;;;;;;;;;12.50;10.50;;;;;19.38;67.28;101435.50;4896100;29;45343;-58
2021/09/16 02:09:42;;;;;;;;;9.00;8.50;;;;;19.34;67.69;101426.91;4897149;29;45257;-58
2021/09/16 02:12:08;;;;;;;;;9.00;8.00;;;;;19.32;67.76;101428.00;4896909;29;45463;-59
2021/09/16 02:14:34;;;;;;;;;13.25;9.75;;;;;19.31;67.85;101434.34;4896696;29;45386;-59
2021/09/16 02:16:59;;;;;;;;;8.00;7.50;;;;;19.29;67.37;101444.31;4896568;29;45388;-59
2021/09/16 02:19:25;;;;;;;;;9.25;8.00;;;;;19.24;67.34;101445.53;4896815;29;45465;-59
2021/09/16 02:21:51;;;;;;;;;8.75;8.75;;;;;19.24;67.87;101439.34;4899328;29;45426;-58
2021/09/16 02:24:16;;;;;;;;;12.00;9.00;;;;;19.23;67.81;101443.84;4895778;29;45606;-58
2021/09/16 02:26:42;;;;;;;;;8.50;7.25;;;;;19.22;67.76;101442.16;4896413;29;46566;-58
2021/09/16 02:29:07;;;;;;;;;11.00;9.00;;;;;19.21;67.93;101443.13;4896604;29;45487;-58
2021/09/16 02:31:33;;;;;;;;;9.50;9.00;;;;;19.25;67.63;101444.56;4896634;29;45222;-58
2021/09/16 02:33:58;;;;;;;;;11.50;10.25;;;;;19.24;67.89;101439.34;4896471;29;45467;-58
2021/09/16 02:36:25;;;;;;;;;8.00;8.00;;;;;19.23;67.95;101451.84;4897566;29;45380;-58
2021/09/16 02:38:51;;;;;;;;;12.00;10.00;;;;;19.18;67.72;101448.72;4897759;29;45236;-58
2021/09/16 02:41:17;;;;;;;;;7.00;7.00;;;;;19.16;67.65;101442.66;4895955;29;45169;-58
2021/09/16 02:43:42;;;;;;;;;8.50;8.50;;;;;19.15;68.12;101448.13;4896948;28;45225;-58
2021/09/16 02:46:08;;;;;;;;;10.50;8.75;;;;;19.13;68.07;101445.59;4896100;29;46150;-58
2021/09/16 02:48:33;;;;;;;;;8.25;7.00;;;;;19.14;68.29;101444.63;4896012;29;45386;-58
2021/09/16 02:50:59;;;;;;;;;9.00;7.00;;;;;19.15;68.31;101453.47;4895884;29;45365;-58
2021/09/16 02:53:24;;;;;;;;;7.50;4.00;;;;;19.14;68.15;101447.28;4896924;29;45291;-58
2021/09/16 02:55:50;;;;;;;;;7.75;6.25;;;;;19.15;68.35;101443.66;4895740;29;45447;-58
2021/09/16 02:58:15;;;;;;;;;9.25;6.75;;;;;19.14;67.95;101447.28;4896049;29;45304;-58
2021/09/16 03:00:41;;;;;;;;;6.50;6.50;;;;;19.15;67.52;101442.81;4898744;29;45301;-58
2021/09/16 03:03:07;;;;;;;;;7.00;6.00;;;;;19.15;67.49;101451.66;4897039;29;45243;-58
2021/09/16 03:05:33;;;;;;;;;9.25;8.25;;;;;19.16;67.51;101458.69;4897864;29;45296;-58
2021/09/16 03:07:59;;;;;;;;;10.00;7.00;;;;;19.17;67.51;101463.06;4893675;29;45324;-58
2021/09/16 03:10:25;;;;;;;;;7.75;7.75;;;;;19.18;67.84;101458.56;4896965;29;45269;-58
2021/09/16 03:12:50;;;;;;;;;7.00;7.00;;;;;19.18;67.98;101463.91;4895382;29;45548;-58
2021/09/16 03:15:16;;;;;;;;;8.00;8.00;;;;;19.20;67.95;101462.81;4897794;29;45237;-58
2021/09/16 03:17:42;;;;;;;;;6.75;5.25;;;;;19.23;68.05;101467.03;4896267;29;45282;-59
2021/09/16 03:20:08;;;;;;;;;8.00;7.25;;;;;19.21;67.39;101467.19;4895725;29;45304;-58
2021/09/16 03:22:34;;;;;;;;;8.50;6.25;;;;;19.20;67.76;101465.47;4895469;29;45544;-58
2021/09/16 03:24:59;;;;;;;;;8.25;8.00;;;;;19.20;67.96;101461.97;4895156;29;45487;-58
2021/09/16 03:27:25;;;;;;;;;7.75;6.75;;;;;19.19;67.78;101468.25;4895715;29;45529;-58
2021/09/16 03:29:50;;;;;;;;;7.75;7.75;;;;;19.18;67.59;101474.56;4896357;29;45513;-58
2021/09/16 03:32:16;;;;;;;;;8.25;6.25;;;;;19.16;68.45;101468.53;4895276;29;45567;-58
2021/09/16 03:34:41;;;;;;;;;6.50;6.50;;;;;19.15;67.76;101470.34;4897147;29;46643;-58
2021/09/16 03:37:07;;;;;;;;;8.50;8.50;;;;;19.16;67.86;101472.03;4880134;29;45411;-58
2021/09/16 03:39:32;;;;;;;;;7.00;7.00;;;;;19.18;67.85;101475.44;4900861;29;45383;-58
2021/09/16 03:41:58;;;;;;;;;6.00;6.00;;;;;19.16;68.16;101476.53;4898550;29;45430;-58
2021/09/16 03:44:23;;;;;;;;;9.00;6.00;;;;;19.16;67.89;101476.53;4899527;29;46287;-58
2021/09/16 03:46:51;;;;;;;;;7.00;6.25;;;;;19.17;68.13;101472.88;4898946;29;45312;-58
2021/09/16 03:49:17;;;;;;;;;9.00;8.00;;;;;19.16;67.46;101472.03;4898617;29;45244;-58
2021/09/16 03:51:42;;;;;;;;;8.75;8.50;;;;;19.15;67.67;101475.69;4898142;29;45553;-58
2021/09/16 03:54:08;;;;;;;;;8.00;7.00;;;;;19.17;67.12;101476.41;4899411;29;46228;-58
2021/09/16 03:56:33;;;;;;;;;10.00;8.00;;;;;19.15;66.80;101480.19;4898707;29;45362;-58
2021/09/16 03:58:59;;;;;;;;;9.25;7.50;;;;;19.14;66.62;101475.81;4900751;29;45308;-58
2021/09/16 04:01:24;;;;;;;;;7.75;5.75;;;;;19.11;66.56;101482.25;4898152;29;45325;-58
2021/09/16 04:03:50;;;;;;;;;6.75;6.75;;;;;19.06;67.13;101480.97;4899933;29;45294;-58
2021/09/16 04:06:15;;;;;;;;;10.75;8.00;;;;;19.02;66.84;101476.84;4898394;29;45459;-58
2021/09/16 04:08:41;;;;;;;;;9.75;8.75;;;;;18.99;66.65;101482.44;4898252;29;45319;-58
2021/09/16 04:11:06;;;;;;;;;8.75;8.00;;;;;18.94;66.97;101483.66;4899676;29;46401;-58
2021/09/16 04:13:32;;;;;;;;;10.25;9.50;;;;;18.86;66.97;101482.59;4898516;29;46089;-58
2021/09/16 04:15:57;;;;;;;;;9.25;7.00;;;;;18.81;66.72;101485.66;4898042;29;45343;-58
2021/09/16 04:18:23;;;;;;;;;12.50;11.75;;;;;18.75;66.96;101485.31;4899927;29;45258;-58
2021/09/16 04:20:48;;;;;;;;;8.75;8.00;;;;;18.73;67.50;101485.44;4897831;29;45171;-58
2021/09/16 04:23:14;;;;;;;;;9.75;8.25;;;;;18.71;67.71;101487.38;4899864;29;45375;-58
2021/09/16 04:25:39;;;;;;;;;8.75;8.75;;;;;18.70;67.08;101485.69;4897452;29;45357;-58
2021/09/16 04:28:05;;;;;;;;;9.25;8.25;;;;;18.68;67.58;101493.81;4899221;29;45150;-58
2021/09/16 04:30:30;;;;;;;;;16.25;9.50;;;;;18.69;67.63;101494.66;4898456;29;45303;-58
2021/09/16 04:32:55;;;;;;;;;22.00;17.75;;;;;18.71;67.59;101491.84;4898033;29;45460;-58
2021/09/16 04:35:21;;;;;;;;;11.25;9.50;;;;;18.70;67.45;101491.00;4898174;29;45238;-58
2021/09/16 04:37:46;;;;;;;;;8.50;7.00;;;;;18.67;67.40;101493.94;4899408;29;45217;-58
2021/09/16 04:40:12;;;;;;;;;12.50;11.00;;;;;18.64;67.75;101489.69;4897463;29;45325;-58
2021/09/16 04:42:39;;;;;;;;;11.50;10.00;;;;;18.59;67.85;101481.19;4900000;29;45589;-58
2021/09/16 04:45:06;;;;;;;;;12.25;9.50;;;;;18.57;67.86;101476.97;4897270;29;45457;-58
2021/09/16 04:47:31;;;;;;;;;11.50;10.00;;;;;18.59;67.67;101478.53;4900728;29;45484;-58
2021/09/16 04:49:57;;;;;;;;;11.00;10.75;;;;;18.60;68.22;101485.56;4897373;29;45544;-58
2021/09/16 04:52:22;;;;;;;;;11.75;9.00;;;;;18.60;67.89;101488.22;4898099;29;46180;-58
2021/09/16 04:54:48;;;;;;;;;13.25;9.50;;;;;18.58;67.85;101482.16;4897135;29;45415;-58
2021/09/16 04:57:13;;;;;;;;;10.25;10.00;;;;;18.57;68.50;101482.28;4898276;29;45490;-58
2021/09/16 04:59:39;;;;;;;;;17.25;15.75;;;;;18.52;68.13;101480.00;4899792;29;45451;-58
2021/09/16 05:02:04;;;;;;;;;16.00;15.00;;;;;18.50;67.79;101481.09;4898255;28;46309;-58
2021/09/16 05:04:30;;;;;;;;;17.75;12.75;;;;;18.47;68.28;101484.00;4897802;29;45368;-58
2021/09/16 05:06:55;;;;;;;;;15.50;13.25;;;;;18.47;68.60;101492.00;4881199;29;45260;-58
2021/09/16 05:09:21;;;;;;;;;15.50;13.00;;;;;18.46;68.20;101495.63;4896766;29;45518;-58
2021/09/16 05:11:46;;;;;;;;;16.00;12.00;;;;;18.46;68.25;101507.16;4898431;29;45363;-58
2021/09/16 05:14:12;;;;;;;;;21.75;13.50;;;;;18.45;68.33;101502.78;4897422;29;45279;-58
2021/09/16 05:16:38;;;;;;;;;14.25;12.00;;;;;18.46;68.41;101503.66;4897769;29;45301;-58
2021/09/16 05:19:04;;;;;;;;;13.00;11.25;;;;;18.47;68.17;101508.00;4900389;29;45362;-58
2021/09/16 05:21:30;;;;;;;;;14.25;11.50;;;;;18.48;68.45;101505.19;4886899;29;45345;-58
2021/09/16 05:23:55;;;;;;;;;15.50;11.50;;;;;18.52;68.10;101505.81;4886507;29;45498;-58
2021/09/16 05:26:21;;;;;;;;;11.25;9.75;;;;;18.50;68.13;101510.44;4886929;29;45298;-58
2021/09/16 05:28:47;;;;;;;;;11.25;10.00;;;;;18.48;68.33;101517.69;4886784;29;45409;-58
2021/09/16 05:31:12;;;;;;;;;10.00;9.25;;;;;18.46;68.51;101515.16;4886779;29;45328;-59
2021/09/16 05:33:38;;;;;;;;;14.00;11.25;;;;;18.46;68.43;101514.31;4886633;29;45302;-58
2021/09/16 05:36:04;;;;;;;;;12.50;11.25;;;;;18.44;68.77;101519.78;4887183;29;45259;-58
2021/09/16 05:38:30;;;;;;;;;13.50;10.00;;;;;18.42;68.43;101517.25;4886482;29;45564;-58
2021/09/16 05:40:56;;;;;;;;;15.00;13.00;;;;;18.41;68.76;101518.22;4886764;29;45233;-58
2021/09/16 05:43:21;;;;;;;;;10.00;10.00;;;;;18.40;69.02;101520.97;4886595;29;45304;-58
2021/09/16 05:45:47;;;;;;;;;10.50;9.00;;;;;18.40;68.69;101519.16;4887027;29;45405;-60
2021/09/16 05:48:12;;;;;;;;;15.25;12.75;;;;;18.40;69.04;101518.31;4883318;29;45576;-56
2021/09/16 05:50:38;;;;;;;;;21.00;17.25;;;;;18.40;68.86;101520.97;4902230;29;45490;-56
2021/09/16 05:53:04;;;;;;;;;11.25;11.00;;;;;18.38;68.76;101523.78;4896628;29;45491;-56
2021/09/16 05:55:29;;;;;;;;;12.25;8.75;;;;;18.38;68.68;101518.44;4897175;29;45495;-56
2021/09/16 05:57:55;;;;;;;;;10.00;8.00;;;;;18.38;68.96;101515.78;4896325;29;45419;-56
2021/09/16 06:00:23;;;;;;;;;11.25;9.50;;;;;18.36;68.96;101515.06;4899832;29;45471;-56
2021/09/16 06:02:48;;;;;;;;;11.00;9.75;;;;;18.35;69.03;101524.03;4897969;29;45484;-57
2021/09/16 06:05:14;;;;;;;;;8.50;7.75;;;;;18.35;68.91;101526.69;4896859;29;45420;-57
2021/09/16 06:07:39;;;;;;;;;11.00;10.00;;;;;18.40;68.97;101532.50;4896839;29;45227;-57
2021/09/16 06:10:05;;;;;;;;;7.00;7.00;;;;;18.45;68.54;101532.13;4897496;29;45204;-57
2021/09/16 06:12:32;;;;;;;;;9.00;9.00;;;;;18.50;68.07;101537.97;4888102;29;45517;-57
2021/09/16 06:14:58;;;;;;;;;11.00;6.00;;;;;18.58;68.01;101538.19;4887956;29;45416;-57
2021/09/16 06:17:24;;;;;;;;;8.25;6.25;;;;;18.63;68.24;101535.16;4904599;29;45496;-58
2021/09/16 06:19:50;;;;;;;;;6.75;6.25;;;;;18.71;67.50;101542.56;4904852;29;46559;-57
2021/09/16 06:22:15;;;;;;;;;6.75;5.00;;;;;18.79;67.71;101548.13;4904464;29;45327;-57
2021/09/16 06:24:41;;;;;;;;;10.25;7.25;;;;;18.88;67.06;101555.38;4904994;29;45391;-57
2021/09/16 06:27:06;;;;;;;;;5.75;5.50;;;;;18.95;67.01;101559.25;4904619;29;45833;-57
2021/09/16 06:29:32;;;;;;;;;9.00;7.00;;;;;19.03;66.94;101553.31;4904876;29;45361;-58
2021/09/16 06:31:57;;;;;;;;;8.00;8.00;;;;;19.11;66.69;101562.38;4898066;29;45704;-55
2021/09/16 06:34:24;;;;;;;;;9.50;5.00;;;;;19.18;66.21;101562.72;4895075;29;45474;-58
2021/09/16 06:36:50;;;;;;;;;6.00;5.50;;;;;19.22;65.70;101564.19;4896387;29;45619;-56
2021/09/16 06:39:15;;;;;;;;;12.25;7.75;;;;;19.21;65.42;101562.50;4895689;29;45481;-57
2021/09/16 06:41:41;;;;;;;;;11.00;6.25;;;;;19.21;65.25;101560.66;4896113;29;45452;-52
2021/09/16 06:44:06;;;;;;;;;7.50;5.50;;;;;19.25;64.97;101571.94;4904550;29;45253;-57
2021/09/16 06:46:32;;;;;;;;;9.00;7.50;;;;;19.28;65.25;101574.38;4904196;29;45511;-51
2021/09/16 06:48:57;;;;;;;;;7.00;7.00;;;;;19.33;65.34;101573.97;4904251;29;45491;-57
2021/09/16 06:51:23;;;;;;;;;6.75;5.25;;;;;19.32;64.80;101574.94;4904366;29;45495;-58
2021/09/16 06:53:48;;;;;;;;;5.50;5.00;;;;;19.30;64.65;101579.56;4897268;29;45413;-55
2021/09/16 06:56:14;;;;;;;;;7.50;6.25;;;;;19.29;64.55;101575.22;4894651;29;45387;-56
2021/09/16 06:58:39;;;;;;;;;7.75;5.75;;;;;19.31;64.94;101570.59;4897820;29;45523;-56
2021/09/16 07:01:05;;;;;;;;;6.00;6.00;;;;;19.32;64.79;101572.28;4894568;29;45776;-55
2021/09/16 07:03:31;;;;;;;;;8.25;6.50;;;;;19.30;64.23;101569.75;4893306;29;45861;-56
2021/09/16 07:05:56;;;;;;;;;38.25;33.75;;;;;19.28;64.83;101574.38;4895175;29;45840;-54
2021/09/16 07:08:22;;;;;;;;;8.50;7.25;;;;;19.29;64.93;101569.88;4897214;29;46188;-56
2021/09/16 07:10:47;;;;;;;;;6.75;6.00;;;;;19.31;64.64;101567.91;4894824;29;45480;-53
2021/09/16 07:13:12;;;;;;;;;7.75;6.75;;;;;19.31;65.01;101571.44;4896498;29;45472;-55
2021/09/16 07:15:38;;;;;;;;;11.75;7.50;;;;;19.36;64.74;101571.91;4893728;29;45476;-59
2021/09/16 07:18:03;;;;;;;;;6.50;6.50;;;;;19.40;64.18;101577.84;4893968;29;45473;-56
2021/09/16 07:20:29;;;;;;;;;7.75;5.25;;;;;19.43;64.36;101577.56;4894279;29;45475;-52
2021/09/16 07:22:54;;;;;;;;;9.50;6.75;;;;;19.44;64.32;101573.94;4894493;29;45491;-56
2021/09/16 07:25:20;;;;;;;;;9.25;7.00;;;;;19.46;64.22;101578.16;4894974;29;45485;-54
2021/09/16 07:27:47;;;;;;;;;11.00;6.00;;;;;19.50;64.64;101584.09;4894590;29;45413;-55
2021/09/16 07:30:13;;;;;;;;;8.50;6.50;;;;;19.53;64.15;101581.19;4895943;29;45304;-53
2021/09/16 07:32:38;;;;;;;;;6.75;6.00;;;;;19.56;63.69;101580.91;4893959;29;45359;-56
2021/09/16 07:35:05;;;;;;;;;10.75;9.50;;;;;19.58;64.01;101587.00;4895076;29;45273;-56
2021/09/16 07:37:31;;;;;;;;;8.50;5.75;;;;;19.62;64.31;101587.63;4894960;29;46314;-56
2021/09/16 07:39:56;;;;;;;;;7.50;7.50;;;;;19.66;63.72;101592.56;4894967;29;45823;-52
2021/09/16 07:42:22;;;;;;;;;5.50;5.00;;;;;19.67;63.08;101591.59;4897024;29;45522;-56
2021/09/16 07:44:47;;;;;;;;;5.75;5.75;;;;;19.64;63.02;101589.16;4894669;29;45509;-58
2021/09/16 07:47:13;;;;;;;;;5.75;4.25;;;;;19.65;62.88;101598.03;4894416;29;45330;-56
2021/09/16 07:49:38;;;;;;;;;5.00;5.00;;;;;19.66;63.06;101595.22;4894857;29;45330;-56
2021/09/16 07:52:04;;;;;;;;;8.00;5.50;;;;;19.66;62.22;101597.91;4894545;29;45272;-57
2021/09/16 07:54:29;;;;;;;;;6.75;5.50;;;;;19.67;62.62;101590.72;4893249;29;45322;-58
2021/09/16 07:56:55;;;;;;;;;2.00;1.00;;;;;19.71;62.24;101597.53;4896958;29;45795;-55
2021/09/16 07:59:21;;;;;;;;;6.75;5.00;;;;;19.71;62.22;101597.53;4894794;29;45245;-54
2021/09/16 08:01:46;;;;;;;;;5.75;5.00;;;;;19.74;62.05;101591.91;4895022;29;45244;-56
2021/09/16 08:04:12;;;;;;;;;4.75;4.00;;;;;19.75;61.97;101605.19;4895535;29;45297;-57
2021/09/16 08:06:38;;;;;;;;;5.50;5.50;;;;;19.76;62.15;101598.84;4896691;29;45917;-55
2021/09/16 08:09:03;;;;;;;;;6.25;5.50;;;;;19.76;61.84;101603.34;4894157;29;45498;-54
2021/09/16 08:11:29;;;;;;;;;5.00;3.00;;;;;19.76;61.31;101603.34;4896139;29;45458;-54
2021/09/16 08:13:55;;;;;;;;;7.00;5.25;;;;;19.77;61.54;101613.91;4894837;29;45258;-55
2021/09/16 08:16:21;;;;;;;;;8.50;4.75;;;;;19.79;61.09;101609.28;4894601;29;45439;-57
2021/09/16 08:18:47;;;;;;;;;5.75;4.75;;;;;19.87;61.52;101607.78;4895007;29;46022;-57
2021/09/16 08:21:14;;;;;;;;;5.25;3.00;;;;;19.94;61.15;101614.31;4894922;29;45492;-58
2021/09/16 08:23:40;;;;;;;;;7.50;5.00;;;;;20.01;60.71;101602.97;4899407;29;45379;-57
2021/09/16 08:26:06;;;;;;;;;4.00;4.00;;;;;20.08;60.76;101608.63;4898316;29;46285;-58
2021/09/16 08:28:34;;;;;;;;;4.00;4.00;;;;;20.10;59.84;101606.66;4897538;29;45431;-58
2021/09/16 08:31:01;;;;;;;;;7.00;4.00;;;;;20.16;59.93;101606.16;4897944;29;45308;-58
2021/09/16 08:33:27;;;;;;;;;6.00;4.00;;;;;20.19;59.37;101605.88;4897882;29;45532;-57
2021/09/16 08:35:52;;;;;;;;;5.50;5.00;;;;;20.23;60.17;101606.47;4897843;29;46129;-58
2021/09/16 08:38:18;;;;;;;;;6.25;5.00;;;;;20.29;59.88;101592.53;4897012;29;45376;-56
2021/09/16 08:40:44;;;;;;;;;5.25;4.75;;;;;20.39;60.10;101592.63;4899709;29;45246;-56
2021/09/16 08:43:10;;;;;;;;;7.25;5.75;;;;;20.48;59.95;101595.34;4897212;29;45306;-55
2021/09/16 08:45:36;;;;;;;;;4.25;4.25;;;;;20.54;59.13;101597.50;4899293;29;45365;-56
2021/09/16 08:48:02;;;;;;;;;4.00;4.00;;;;;20.58;58.79;101598.91;4894434;29;45365;-57
2021/09/16 08:50:29;;;;;;;;;6.25;3.25;;;;;20.61;58.84;101598.63;4897782;29;45238;-54
2021/09/16 08:52:55;;;;;;;;;4.50;3.50;;;;;20.72;58.51;101603.06;4897139;29;45642;-53
2021/09/16 08:55:22;;;;;;;;;3.00;2.00;;;;;20.74;57.66;101603.75;4896902;29;45456;-56
2021/09/16 08:57:57;;;;;;;;;4.25;3.50;;;;;20.80;57.42;101605.06;4897238;29;45445;-55
2021/09/16 09:00:23;;;;;;;;;3.50;2.00;;;;;20.88;57.36;101602.56;4897629;29;45279;-56
2021/09/16 09:02:51;;;;;;;;;3.00;2.00;;;;;20.97;56.91;101604.41;4897440;29;45250;-56
2021/09/16 09:05:17;;;;;;;;;3.00;3.00;;;;;21.05;56.51;101607.25;4897125;29;46338;-54
2021/09/16 09:07:50;;;;;;;;;2.00;2.00;;;;;21.10;56.24;101602.31;4896460;29;45230;-53
2021/09/16 09:10:47;;;;;;;;;7.00;4.50;;;;;21.14;55.68;101617.13;4899077;29;45363;-57
2021/09/16 09:13:32;;;;;;;;;2.50;2.00;;;;;21.18;55.23;101613.19;4896518;29;45168;-54
2021/09/16 09:16:04;;;;;;;;;3.00;3.00;;;;;21.23;55.06;101619.97;4896564;29;45281;-56
2021/09/16 09:18:42;;;;;;;;;5.00;3.00;;;;;21.26;55.52;101617.88;4898726;29;45385;-57
2021/09/16 09:21:09;;;;;;;;;4.00;2.50;;;;;21.33;55.78;101618.16;4896450;29;45466;-56
2021/09/16 09:23:38;;;;;;;;;2.00;1.00;;;;;21.39;55.74;101617.63;4897372;29;45371;-56
2021/09/16 09:26:28;;;;;;;;;5.00;3.50;;;;;21.45;54.73;101620.59;4882794;29;45452;-54
2021/09/16 09:29:08;;;;;;;;;2.00;1.50;;;;;21.46;54.53;101611.56;4896586;29;45320;-56
2021/09/16 09:31:36;;;;;;;;;1.25;1.25;;;;;21.54;54.46;101620.72;4893698;29;45478;-56
2021/09/16 09:34:24;;;;;;;;;2.75;1.50;;;;;21.61;53.92;101621.88;4896423;29;45443;-57
2021/09/16 09:36:51;;;;;;;;;2.00;2.00;;;;;21.65;54.25;101625.97;4896135;29;46047;-57
2021/09/16 09:39:25;;;;;;;;;3.00;3.00;;;;;21.71;53.44;101625.38;4898549;29;45427;-56
2021/09/16 09:41:51;;;;;;;;;1.75;1.50;;;;;21.74;52.86;101617.06;4898056;29;45320;-56
2021/09/16 09:44:17;;;;;;;;;2.50;2.50;;;;;21.67;53.31;101621.31;4897430;29;45336;-56
2021/09/16 09:46:51;;;;;;;;;2.75;2.75;;;;;21.68;53.40;101625.69;4896363;29;46237;-57
2021/09/16 09:49:20;;;;;;;;;4.00;2.25;;;;;21.71;53.17;101623.53;4897357;29;45495;-56
2021/09/16 09:51:51;;;;;;;;;3.25;3.00;;;;;21.74;53.12;101625.13;4897380;29;45213;-56
2021/09/16 09:54:38;;;;;;;;;3.00;3.00;;;;;21.77;52.75;101621.28;4895389;29;45384;-57
2021/09/16 09:57:18;;;;;;;;;3.50;3.00;;;;;21.81;52.81;101618.19;4894176;29;45563;-58
2021/09/16 10:00:16;;;;;;;;;5.25;3.00;;;;;21.84;52.81;101620.59;4894683;29;46497;-57
2021/09/16 10:02:50;;;;;;;;;5.50;4.75;;;;;21.88;52.62;101622.00;4895060;29;45329;-57
2021/09/16 10:05:26;;;;;;;;;3.25;3.25;;;;;21.89;52.29;101617.50;4895123;29;45410;-58
2021/09/16 10:07:53;;;;;;;;;3.50;3.25;;;;;21.92;53.04;101617.19;4893026;29;45297;-57
2021/09/16 10:10:19;;;;;;;;;4.75;3.75;;;;;21.98;52.59;101616.63;4896228;29;45290;-56
2021/09/16 10:12:46;;;;;;;;;5.25;4.50;;;;;22.00;52.22;101614.63;4893632;29;45262;-57
2021/09/16 10:15:16;;;;;;;;;4.00;3.00;;;;;22.03;51.92;101615.19;4895026;29;45236;-55
2021/09/16 10:17:42;;;;;;;;;3.00;3.00;;;;;22.08;52.03;101609.44;4894243;29;46516;-56
2021/09/16 10:20:10;;;;;;;;;7.50;5.25;;;;;22.15;52.09;101610.53;4894535;29;45448;-57
2021/09/16 10:22:37;;;;;;;;;13.00;12.00;;;;;22.19;52.40;101611.09;4894663;29;45499;-58
2021/09/16 10:25:06;;;;;;;;;6.75;5.00;;;;;22.20;51.53;101605.59;4894700;29;45489;-57
2021/09/16 10:27:41;;;;;;;;;8.00;6.00;;;;;22.16;51.75;101608.72;4894622;29;47412;-58
2021/09/16 10:30:22;;;;;;;;;4.00;4.00;;;;;22.19;51.72;101605.72;4894115;29;45376;-58
2021/09/16 10:33:04;;;;;;;;;7.00;4.50;;;;;22.23;51.82;101604.44;4892209;29;45560;-59
2021/09/16 10:35:32;;;;;;;;;5.00;4.25;;;;;22.31;51.76;101603.72;4894172;29;45451;-58
2021/09/16 10:38:24;;;;;;;;;7.25;5.50;;;;;22.38;51.88;101597.63;4895703;29;45185;-58
2021/09/16 10:41:12;;;;;;;;;8.25;7.00;;;;;22.48;52.08;101595.75;4892837;29;45463;-59
2021/09/16 10:43:38;;;;;;;;;3.00;3.00;;;;;22.53;50.84;101592.63;4895968;29;45459;-58
2021/09/16 10:46:37;;;;;;;;;7.00;4.00;;;;;22.54;50.81;101595.16;4893905;29;45547;-57
2021/09/16 10:49:21;;;;;;;;;4.25;3.75;;;;;22.53;50.59;101595.31;4880546;29;45573;-58
2021/09/16 10:51:53;;;;;;;;;6.50;4.75;;;;;22.54;50.63;101597.84;4892382;29;45476;-57
2021/09/16 10:54:27;;;;;;;;;5.20;4.20;;;;;22.55;50.17;101596.84;4843537;29;1465090;-57
2021/09/16 10:57:01;;;;;;;;;5.00;5.00;;;;;22.54;50.90;101594.31;4895100;29;45630;-57
2021/09/16 10:59:53;;;;;;;;;43.00;36.75;;;;;22.56;50.86;101592.31;4895405;29;45471;-56
2021/09/16 11:02:46;;;;;;;;;3.50;3.50;;;;;22.62;50.20;101590.88;4895160;29;45254;-57
2021/09/16 11:05:15;;;;;;;;;9.75;5.00;;;;;22.64;50.53;101592.41;4894769;29;45261;-58
2021/09/16 11:07:42;;;;;;;;;6.25;5.00;;;;;22.57;50.26;101592.16;4894348;29;45375;-58
2021/09/16 11:10:13;;;;;;;;;4.75;4.25;;;;;22.52;50.87;101583.72;4897040;29;46267;-58
2021/09/16 11:12:46;;;;;;;;;5.75;5.25;;;;;22.60;50.11;101595.56;4894783;29;45218;-58
2021/09/16 11:15:23;;;;;;;;;5.25;5.00;;;;;22.55;50.16;101588.78;4896516;29;45656;-58
2021/09/16 11:17:48;;;;;;;;;6.25;2.75;;;;;22.63;50.14;101593.41;4895310;29;45339;-58
2021/09/16 11:20:14;;;;;;;;;4.00;3.75;;;;;22.65;49.96;101587.91;4895198;29;45337;-58
2021/09/16 11:22:40;;;;;;;;;6.50;3.00;;;;;22.64;49.73;101589.72;4895121;29;45421;-58